Antonio Almeida, Brazil
Current Conditions -  °F | °C
As of 12:00 PM on Saturday 22 Nov 2014 (Local Time) from SBTE Reporting Station
Scattered Clouds Scattered Clouds  
Wind Chill: 93°   Ceiling: Unl
Heat Index: 96°   Visibility: 6mi
Dew Point: 66°   Wind: 9mph
Humidity: 41%   Direction: 150°SSE
Pressure: 29.83"   Gusts: NA
Location:  7.22°S, 44.2°W
Report Text: SBTE 221500Z 15008KT 9999 SCT030 34/19 Q1010
Loading
Personal Weather Stations






























Interactive Weather Map New forecast layout! Learn more

10-Day Weather Forecast

Advertisements
Track Severe Weather on mobile